createdAt,value
2023-03-04T00:00:32.608Z,4.93
2023-03-04T00:03:00.118Z,4.57
2023-03-04T00:05:27.612Z,4.70
2023-03-04T00:07:54.996Z,6.20
2023-03-04T00:10:22.423Z,4.47
2023-03-04T00:12:49.827Z,4.13
2023-03-04T00:15:17.259Z,4.63
2023-03-04T00:17:46.144Z,4.80
2023-03-04T00:20:14.220Z,5.20
2023-03-04T00:22:42.891Z,4.50
2023-03-04T00:25:10.386Z,5.17
2023-03-04T00:27:37.808Z,4.27
2023-03-04T00:30:06.301Z,6.17
2023-03-04T00:32:33.865Z,6.07
2023-03-04T00:35:01.441Z,6.70
2023-03-04T00:37:29.109Z,5.13
2023-03-04T00:39:56.504Z,5.30
2023-03-04T00:42:23.918Z,6.93
2023-03-04T00:44:52.064Z,5.00
2023-03-04T00:47:19.445Z,4.33
2023-03-04T00:49:47.007Z,5.53
2023-03-04T00:52:14.532Z,4.53
2023-03-04T00:54:41.984Z,5.13
2023-03-04T00:57:09.394Z,4.77
2023-03-04T00:59:37.185Z,4.67
2023-03-04T01:02:04.896Z,4.63
2023-03-04T01:04:32.381Z,5.60
2023-03-04T01:07:00.467Z,6.33
2023-03-04T01:09:29.580Z,4.03
2023-03-04T01:11:57.134Z,4.83
2023-03-04T01:14:24.594Z,3.90
2023-03-04T01:16:52.021Z,3.80
2023-03-04T01:19:19.532Z,5.87
2023-03-04T01:21:46.836Z,5.23
2023-03-04T01:24:15.796Z,5.80
2023-03-04T01:26:43.083Z,4.87
2023-03-04T01:29:10.429Z,3.43
2023-03-04T01:31:37.959Z,4.63
2023-03-04T01:34:05.387Z,5.47
2023-03-04T01:36:32.687Z,3.93
2023-03-04T01:39:00.046Z,3.27
2023-03-04T01:41:27.709Z,3.93
2023-03-04T01:44:00.825Z,4.23
2023-03-04T01:46:28.488Z,4.73
2023-03-04T01:48:56.181Z,4.83
2023-03-04T01:51:23.548Z,3.93
2023-03-04T01:53:53.424Z,3.07
2023-03-04T01:56:20.821Z,3.73
2023-03-04T01:59:07.063Z,2.80
2023-03-04T02:01:34.726Z,4.13
2023-03-04T02:04:02.203Z,4.07
2023-03-04T02:06:29.691Z,3.70
2023-03-04T02:08:57.412Z,3.17
2023-03-04T02:11:25.627Z,3.67
2023-03-04T02:13:53.425Z,4.20
2023-03-04T02:16:21.551Z,5.03
2023-03-04T02:18:49.044Z,3.87
2023-03-04T02:21:22.145Z,4.60
2023-03-04T02:23:50.180Z,4.83
2023-03-04T02:26:21.706Z,3.23
2023-03-04T02:28:52.763Z,3.70
2023-03-04T02:31:34.955Z,3.53
2023-03-04T02:34:03.942Z,4.57
2023-03-04T02:36:32.397Z,3.33
2023-03-04T02:39:06.204Z,3.50
2023-03-04T02:41:33.880Z,2.97
2023-03-04T02:44:01.747Z,4.70
2023-03-04T02:46:29.718Z,4.00
2023-03-04T02:48:57.031Z,2.43
2023-03-04T02:51:24.692Z,3.00
2023-03-04T02:53:52.010Z,3.20
2023-03-04T02:56:19.431Z,3.57
2023-03-04T02:58:46.776Z,3.47
2023-03-04T03:01:14.130Z,3.37
2023-03-04T03:03:42.602Z,2.63
2023-03-04T03:06:11.283Z,2.47
2023-03-04T03:08:38.940Z,2.63
2023-03-04T03:11:07.708Z,2.57
2023-03-04T03:13:36.703Z,2.77
2023-03-04T03:16:04.942Z,3.80
2023-03-04T03:18:32.313Z,4.13
2023-03-04T03:20:59.626Z,2.50
2023-03-04T03:23:26.983Z,2.60
2023-03-04T03:25:54.333Z,2.40
2023-03-04T03:28:21.746Z,3.40
2023-03-04T03:30:49.112Z,2.97
2023-03-04T03:33:16.629Z,2.13
2023-03-04T03:35:44.156Z,3.13
2023-03-04T03:38:12.499Z,2.53
2023-03-04T03:40:40.154Z,4.17
2023-03-04T03:43:07.571Z,2.77
2023-03-04T03:45:35.098Z,2.93
2023-03-04T03:48:02.433Z,3.37
2023-03-04T03:50:29.872Z,3.53
2023-03-04T03:52:57.400Z,2.80
2023-03-04T03:55:24.684Z,2.33
2023-03-04T03:57:52.116Z,2.03
2023-03-04T04:00:19.842Z,2.40
2023-03-04T04:02:48.072Z,3.30
2023-03-04T04:05:15.602Z,3.00
2023-03-04T04:07:43.294Z,2.03
2023-03-04T04:10:11.620Z,2.53
2023-03-04T04:12:38.904Z,2.40
2023-03-04T04:15:06.846Z,2.77
2023-03-04T04:17:34.180Z,2.40
2023-03-04T04:20:01.602Z,2.57
2023-03-04T04:22:28.960Z,2.67
2023-03-04T04:24:56.474Z,4.17
2023-03-04T04:27:23.874Z,2.50
2023-03-04T04:29:51.188Z,2.80
2023-03-04T04:32:18.531Z,2.10
2023-03-04T04:34:45.888Z,2.00
2023-03-04T04:37:13.387Z,3.03
2023-03-04T04:39:41.301Z,2.80
2023-03-04T04:42:11.536Z,2.27
2023-03-04T04:44:39.690Z,3.20
2023-03-04T04:47:07.626Z,2.13
2023-03-04T04:49:34.936Z,2.47
2023-03-04T04:52:02.283Z,2.97
2023-03-04T04:54:29.661Z,2.00
2023-03-04T04:56:56.983Z,2.20
2023-03-04T04:59:25.267Z,2.73
2023-03-04T05:01:53.716Z,3.47
2023-03-04T05:04:21.103Z,2.57
2023-03-04T05:06:48.425Z,2.80
2023-03-04T05:09:15.724Z,2.90
2023-03-04T05:11:43.058Z,2.47
2023-03-04T05:14:10.389Z,2.67
2023-03-04T05:16:51.211Z,3.13
2023-03-04T05:19:19.714Z,2.47
2023-03-04T05:21:47.010Z,3.23
2023-03-04T05:24:14.356Z,2.40
2023-03-04T05:26:41.990Z,2.67
2023-03-04T05:29:09.391Z,2.57
2023-03-04T05:31:36.787Z,2.57
2023-03-04T05:34:04.200Z,1.93
2023-03-04T05:36:31.608Z,2.53
2023-03-04T05:38:59.131Z,3.00
2023-03-04T05:41:26.567Z,3.93
2023-03-04T05:43:53.922Z,2.27
2023-03-04T05:46:25.387Z,2.73
2023-03-04T05:48:53.424Z,3.53
2023-03-04T05:51:21.107Z,2.53
2023-03-04T05:53:48.912Z,3.40
2023-03-04T05:56:17.847Z,2.70
2023-03-04T05:58:47.469Z,3.10
2023-03-04T06:01:15.487Z,3.00
2023-03-04T06:03:43.516Z,2.20
2023-03-04T06:06:11.335Z,3.63
2023-03-04T06:08:38.727Z,3.90
2023-03-04T06:11:06.454Z,2.80
2023-03-04T06:13:34.240Z,2.77
2023-03-04T06:16:01.769Z,3.07
2023-03-04T06:18:29.520Z,3.40
2023-03-04T06:21:00.963Z,3.30
2023-03-04T06:23:28.672Z,2.53
2023-03-04T06:25:56.883Z,2.87
2023-03-04T06:28:24.346Z,5.77
2023-03-04T06:30:55.762Z,4.27
2023-03-04T06:33:23.271Z,2.70
2023-03-04T06:35:54.596Z,3.03
2023-03-04T06:38:22.010Z,3.97
2023-03-04T06:40:49.573Z,3.87
2023-03-04T06:43:17.051Z,3.27
2023-03-04T06:45:44.505Z,3.87
2023-03-04T06:48:11.993Z,3.27
2023-03-04T06:50:42.525Z,3.60
2023-03-04T06:53:09.885Z,3.43
2023-03-04T06:55:37.243Z,3.23
2023-03-04T06:58:04.670Z,3.67
2023-03-04T07:00:32.357Z,3.23
2023-03-04T07:03:00.469Z,3.30
2023-03-04T07:05:27.867Z,2.87
2023-03-04T07:07:55.253Z,4.03
2023-03-04T07:10:22.665Z,3.40
2023-03-04T07:12:50.053Z,2.60
2023-03-04T07:15:17.454Z,2.70
2023-03-04T07:17:44.823Z,2.97
2023-03-04T07:20:12.641Z,4.17
2023-03-04T07:22:40.073Z,3.53
2023-03-04T07:25:07.680Z,4.60
2023-03-04T07:27:35.137Z,2.60
2023-03-04T07:30:02.726Z,3.40
2023-03-04T07:32:30.237Z,3.27
2023-03-04T07:34:57.664Z,2.83
2023-03-04T07:37:25.025Z,3.13
2023-03-04T07:39:52.716Z,2.43
2023-03-04T07:42:20.196Z,3.77
2023-03-04T07:44:55.249Z,4.57
2023-03-04T07:47:22.745Z,3.50
2023-03-04T07:49:50.157Z,4.13
2023-03-04T07:52:17.650Z,3.63
2023-03-04T07:54:45.041Z,3.40
2023-03-04T07:57:12.421Z,3.63
2023-03-04T07:59:39.814Z,2.03
2023-03-04T08:02:07.738Z,3.60
2023-03-04T08:04:35.142Z,2.73
2023-03-04T08:07:02.900Z,3.03
2023-03-04T08:09:31.404Z,3.17
2023-03-04T08:11:58.840Z,2.63
2023-03-04T08:14:26.275Z,4.47
2023-03-04T08:16:53.816Z,3.03
2023-03-04T08:19:21.223Z,3.00
2023-03-04T08:21:48.579Z,2.90
2023-03-04T08:24:16.011Z,3.40
2023-03-04T08:26:45.546Z,2.87
2023-03-04T08:29:16.170Z,2.80
2023-03-04T08:31:48.571Z,3.90
2023-03-04T08:34:16.997Z,4.57
2023-03-04T08:36:44.583Z,2.83
2023-03-04T08:39:16.060Z,2.77
2023-03-04T08:41:44.104Z,2.70
2023-03-04T08:44:11.962Z,3.03
2023-03-04T08:46:40.629Z,3.40
2023-03-04T08:49:08.678Z,3.37
2023-03-04T08:51:36.385Z,5.25
2023-03-04T08:54:04.344Z,5.50
2023-03-04T08:56:32.002Z,4.50
2023-03-04T08:59:10.252Z,4.60
2023-03-04T09:01:41.167Z,4.47
2023-03-04T09:04:08.566Z,4.40
2023-03-04T09:06:36.095Z,4.47
2023-03-04T09:09:04.437Z,3.77
2023-03-04T09:11:32.175Z,4.17
2023-03-04T09:13:59.539Z,4.37
2023-03-04T09:16:27.130Z,3.90
2023-03-04T09:18:54.589Z,3.87
2023-03-04T09:21:22.065Z,4.33
2023-03-04T09:23:49.389Z,5.90
2023-03-04T09:26:19.869Z,5.87
2023-03-04T09:28:50.052Z,5.23
2023-03-04T09:31:17.445Z,3.17
2023-03-04T09:33:45.129Z,3.77
2023-03-04T09:36:13.830Z,5.53
2023-03-04T09:38:41.768Z,5.37
2023-03-04T09:41:10.808Z,4.37
2023-03-04T09:43:39.499Z,4.13
2023-03-04T09:46:12.794Z,5.00
2023-03-04T09:48:42.835Z,4.03
2023-03-04T09:51:13.240Z,5.03
2023-03-04T09:53:44.212Z,6.27
2023-03-04T09:56:12.227Z,4.93
2023-03-04T09:58:50.160Z,5.30
2023-03-04T10:01:27.291Z,4.97
2023-03-04T10:03:56.919Z,5.20
2023-03-04T10:06:24.327Z,2.60
2023-03-04T10:09:03.980Z,4.13
2023-03-04T10:11:36.054Z,3.33
2023-03-04T10:14:14.229Z,3.07
2023-03-04T10:16:56.684Z,3.50
2023-03-04T10:19:44.184Z,3.77
2023-03-04T10:22:17.865Z,3.87
2023-03-04T10:24:47.635Z,3.10
2023-03-04T10:27:18.777Z,5.03
2023-03-04T10:29:48.917Z,2.50
2023-03-04T10:32:18.323Z,3.03
2023-03-04T10:34:45.743Z,1.97
2023-03-04T10:37:13.290Z,2.67
2023-03-04T10:39:42.004Z,2.63
2023-03-04T10:42:15.440Z,2.50
2023-03-04T10:44:44.324Z,2.37
2023-03-04T10:47:14.369Z,1.57
2023-03-04T10:49:58.383Z,2.20
2023-03-04T10:52:28.715Z,1.90
2023-03-04T10:54:57.391Z,2.60
2023-03-04T10:57:27.501Z,1.40
2023-03-04T10:59:54.770Z,2.40
2023-03-04T11:02:33.315Z,3.23
2023-03-04T11:05:17.572Z,3.30
2023-03-04T11:07:55.867Z,5.43
2023-03-04T11:10:30.445Z,3.13
2023-03-04T11:13:12.967Z,3.83
2023-03-04T11:16:02.055Z,3.23
2023-03-04T11:18:39.150Z,2.97
2023-03-04T11:21:07.257Z,4.23
2023-03-04T11:23:40.445Z,2.23
2023-03-04T11:26:16.885Z,2.80
2023-03-04T11:28:44.266Z,2.87
2023-03-04T11:31:16.206Z,2.00
2023-03-04T11:33:52.922Z,2.27
2023-03-04T11:36:20.407Z,1.50
2023-03-04T11:38:50.160Z,1.43
2023-03-04T11:41:32.158Z,2.33
2023-03-04T11:44:00.535Z,2.03
2023-03-04T11:46:31.918Z,1.73
2023-03-04T11:49:05.486Z,1.47
2023-03-04T11:51:42.745Z,1.27
2023-03-04T11:54:16.043Z,1.70
2023-03-04T11:56:44.901Z,2.93
2023-03-04T11:59:27.091Z,1.67
2023-03-04T12:02:30.650Z,1.97
2023-03-04T12:05:12.927Z,2.10
2023-03-04T12:07:50.493Z,2.37
2023-03-04T12:10:23.416Z,2.23
2023-03-04T12:12:57.211Z,2.87
2023-03-04T12:15:42.869Z,2.73
2023-03-04T12:21:50.017Z,2.43
2023-03-04T12:24:35.184Z,1.90
2023-03-04T12:27:08.853Z,2.00
2023-03-04T12:29:46.854Z,2.33
2023-03-04T12:32:14.246Z,2.03
2023-03-04T12:34:47.248Z,2.53
2023-03-04T12:37:17.996Z,2.40
2023-03-04T12:39:57.458Z,2.20
2023-03-04T12:42:24.914Z,2.17
2023-03-04T12:44:58.283Z,2.80
2023-03-04T12:47:32.943Z,3.50
2023-03-04T12:50:03.198Z,2.70
2023-03-04T12:52:39.767Z,2.40
2023-03-04T12:55:11.875Z,1.50
2023-03-04T12:57:40.507Z,2.10
2023-03-04T13:00:18.419Z,1.73
2023-03-04T13:02:45.929Z,2.83
2023-03-04T13:05:32.154Z,2.10
2023-03-04T13:08:18.068Z,2.53
2023-03-04T13:10:45.551Z,2.00
2023-03-04T13:13:31.479Z,2.77
2023-03-04T13:16:03.036Z,2.67
2023-03-04T13:18:34.992Z,2.47
2023-03-04T13:21:14.804Z,2.90
2023-03-04T13:23:42.247Z,1.97
2023-03-04T13:26:18.294Z,3.07
2023-03-04T13:28:45.918Z,2.00
2023-03-04T13:31:18.181Z,2.53
2023-03-04T13:33:46.961Z,1.73
2023-03-04T13:36:34.549Z,3.40
2023-03-04T13:39:03.672Z,2.57
2023-03-04T13:41:47.268Z,2.20
2023-03-04T13:44:32.631Z,3.13
2023-03-04T13:47:07.640Z,3.90
2023-03-04T13:49:35.060Z,2.97
2023-03-04T13:52:22.624Z,3.20
2023-03-04T13:54:50.014Z,2.87
2023-03-04T13:57:20.247Z,2.77
2023-03-04T13:59:56.024Z,2.63
2023-03-04T14:02:34.457Z,2.77
2023-03-04T14:05:02.611Z,3.77
2023-03-04T14:07:31.988Z,2.97
2023-03-04T14:10:08.658Z,3.00
2023-03-04T14:12:37.384Z,2.60
2023-03-04T14:15:06.571Z,2.87
2023-03-04T14:17:37.305Z,2.97
2023-03-04T14:20:05.590Z,4.13
2023-03-04T14:22:34.208Z,2.97
2023-03-04T14:25:03.149Z,2.60
2023-03-04T14:27:33.085Z,2.90
2023-03-04T14:30:02.066Z,2.40
2023-03-04T14:32:30.505Z,3.00
2023-03-04T14:35:09.484Z,3.73
2023-03-04T14:37:44.275Z,3.10
2023-03-04T14:40:19.260Z,2.37
2023-03-04T14:42:47.030Z,3.60
2023-03-04T14:45:15.948Z,2.70
2023-03-04T14:47:48.602Z,3.63
2023-03-04T14:50:18.005Z,2.60
2023-03-04T14:52:46.876Z,3.70
2023-03-04T14:55:17.393Z,3.50
2023-03-04T14:57:47.646Z,4.00
2023-03-04T15:00:16.061Z,2.93
2023-03-04T15:02:43.809Z,2.90
2023-03-04T15:05:25.879Z,3.83
2023-03-04T15:07:58.602Z,2.70
2023-03-04T15:10:36.154Z,4.30
2023-03-04T15:13:05.757Z,3.23
2023-03-04T15:15:37.883Z,2.83
2023-03-04T15:18:16.179Z,2.23
2023-03-04T15:20:44.047Z,3.17
2023-03-04T15:23:14.756Z,2.67
2023-03-04T15:25:42.172Z,4.03
2023-03-04T15:28:16.105Z,4.80
2023-03-04T15:30:43.612Z,2.57
2023-03-04T15:33:12.157Z,3.37
2023-03-04T15:35:40.533Z,6.43
2023-03-04T15:38:08.790Z,3.73
2023-03-04T15:40:41.943Z,4.20
2023-03-04T15:43:11.629Z,3.27
2023-03-04T15:45:39.233Z,3.37
2023-03-04T15:48:10.397Z,2.83
2023-03-04T15:50:39.753Z,1.60
2023-03-04T15:53:14.067Z,3.07
2023-03-04T15:55:42.655Z,3.77
2023-03-04T15:58:11.652Z,4.27
2023-03-04T16:00:39.069Z,3.13
2023-03-04T16:03:06.420Z,4.57
2023-03-04T16:05:37.755Z,3.90
2023-03-04T16:08:05.320Z,2.13
2023-03-04T16:10:33.410Z,2.40
2023-03-04T16:13:00.922Z,3.37
2023-03-04T16:15:30.027Z,3.00
2023-03-04T16:17:58.019Z,3.07
2023-03-04T16:20:28.623Z,2.87
2023-03-04T16:22:58.004Z,3.80
2023-03-04T16:25:25.988Z,2.27
2023-03-04T16:27:56.018Z,3.93
2023-03-04T16:30:25.254Z,2.80
2023-03-04T16:32:52.677Z,3.10
2023-03-04T16:35:20.915Z,2.97
2023-03-04T16:37:48.482Z,2.70
2023-03-04T16:40:17.224Z,2.73
2023-03-04T16:42:44.903Z,3.53
2023-03-04T16:45:23.155Z,4.47
2023-03-04T16:47:50.792Z,3.20
2023-03-04T16:50:20.150Z,2.83
2023-03-04T16:52:48.891Z,2.93
2023-03-04T16:55:20.921Z,3.10
2023-03-04T16:57:48.289Z,4.03
2023-03-04T17:00:17.359Z,3.83
2023-03-04T17:02:45.763Z,3.57
2023-03-04T17:05:17.397Z,4.57
2023-03-04T17:07:44.980Z,3.00
2023-03-04T17:10:13.313Z,3.33
2023-03-04T17:12:40.925Z,3.83
2023-03-04T17:15:10.746Z,4.50
2023-03-04T17:17:38.340Z,3.67
2023-03-04T17:20:08.823Z,3.73
2023-03-04T17:22:36.253Z,4.23
2023-03-04T17:25:05.070Z,4.80
2023-03-04T17:27:32.440Z,3.90
2023-03-04T17:29:59.846Z,3.63
2023-03-04T17:32:32.570Z,4.50
2023-03-04T17:35:00.447Z,4.80
2023-03-04T17:37:27.828Z,4.67
2023-03-04T17:39:55.310Z,3.30
2023-03-04T17:42:22.640Z,4.20
2023-03-04T17:44:50.167Z,3.57
2023-03-04T17:47:19.574Z,3.80
2023-03-04T17:49:46.971Z,3.53
2023-03-04T17:52:14.409Z,3.27
2023-03-04T17:54:41.903Z,4.10
2023-03-04T17:57:10.303Z,5.13
2023-03-04T17:59:37.753Z,4.77
2023-03-04T18:02:06.003Z,3.93
2023-03-04T18:04:33.527Z,3.70
2023-03-04T18:07:00.919Z,4.40
2023-03-04T18:09:28.305Z,4.63
2023-03-04T18:11:55.760Z,2.60
2023-03-04T18:14:23.293Z,4.03
2023-03-04T18:16:50.816Z,3.80
2023-03-04T18:19:18.820Z,3.40
2023-03-04T18:21:46.223Z,3.23
2023-03-04T18:24:13.614Z,3.47
2023-03-04T18:26:41.078Z,3.77
2023-03-04T18:29:08.585Z,4.87
2023-03-04T18:31:37.051Z,4.07
2023-03-04T18:34:05.535Z,4.00
2023-03-04T18:36:33.725Z,3.67
2023-03-04T18:39:04.138Z,4.80
2023-03-04T18:41:31.722Z,3.07
2023-03-04T18:43:59.462Z,4.90
2023-03-04T18:46:29.723Z,4.93
2023-03-04T18:49:00.128Z,4.90
2023-03-04T18:51:27.871Z,3.93
2023-03-04T18:53:58.351Z,3.57
2023-03-04T18:56:28.247Z,5.33
2023-03-04T18:58:55.889Z,5.77
2023-03-04T19:01:24.996Z,10.67
2023-03-04T19:03:54.542Z,5.97
2023-03-04T19:06:24.859Z,7.50
2023-03-04T19:08:55.334Z,17.17
2023-03-04T19:11:24.764Z,9.20
2023-03-04T19:13:52.569Z,12.90
2023-03-04T19:16:20.176Z,9.73
2023-03-04T19:18:47.760Z,6.37
2023-03-04T19:21:15.731Z,5.70
2023-03-04T19:23:43.273Z,6.80
2023-03-04T19:26:13.891Z,6.33
2023-03-04T19:28:42.108Z,6.37
2023-03-04T19:31:11.355Z,4.93
2023-03-04T19:33:41.232Z,4.70
2023-03-04T19:36:09.789Z,3.87
2023-03-04T19:38:37.687Z,4.87
2023-03-04T19:41:09.495Z,4.13
2023-03-04T19:43:36.965Z,4.17
2023-03-04T19:46:04.600Z,3.40
2023-03-04T19:48:32.241Z,3.77
2023-03-04T19:51:00.119Z,4.03
2023-03-04T19:53:27.568Z,4.27
2023-03-04T19:55:54.983Z,4.20
2023-03-04T19:58:22.484Z,3.53
2023-03-04T20:00:52.047Z,3.40
2023-03-04T20:03:19.598Z,3.10
2023-03-04T20:05:47.286Z,3.67
2023-03-04T20:08:14.856Z,3.60
2023-03-04T20:10:42.356Z,2.93
2023-03-04T20:13:10.300Z,2.50
2023-03-04T20:15:37.929Z,3.73
2023-03-04T20:18:05.490Z,2.57
2023-03-04T20:20:34.280Z,2.77
2023-03-04T20:23:01.779Z,2.40
2023-03-04T20:25:31.973Z,3.13
2023-03-04T20:27:59.800Z,2.47
2023-03-04T20:30:27.168Z,1.97
2023-03-04T20:32:54.725Z,2.50
2023-03-04T20:35:22.236Z,2.90
2023-03-04T20:37:49.699Z,3.23
2023-03-04T20:40:17.340Z,2.63
2023-03-04T20:42:44.757Z,2.83
2023-03-04T20:45:12.401Z,3.40
2023-03-04T20:47:39.924Z,2.97
2023-03-04T20:50:07.586Z,3.80
2023-03-04T20:52:35.557Z,3.20
2023-03-04T20:55:02.930Z,3.97
2023-03-04T20:57:32.246Z,3.77
2023-03-04T21:00:00.167Z,7.37
2023-03-04T21:02:27.794Z,5.70
2023-03-04T21:04:55.666Z,3.37
2023-03-04T21:07:24.308Z,3.37
2023-03-04T21:09:51.642Z,4.07
2023-03-04T21:12:20.105Z,3.60
2023-03-04T21:14:47.554Z,4.63
2023-03-04T21:17:15.037Z,2.87
2023-03-04T21:19:43.479Z,2.40
2023-03-04T21:22:14.630Z,2.70
2023-03-04T21:24:42.434Z,4.53
2023-03-04T21:27:09.951Z,6.27
2023-03-04T21:29:37.463Z,4.00
2023-03-04T21:32:22.346Z,3.37
2023-03-04T21:34:52.300Z,2.97
2023-03-04T21:37:20.704Z,3.03
2023-03-04T21:39:48.489Z,3.00
2023-03-04T21:42:17.591Z,3.27
2023-03-04T21:44:49.504Z,3.07
2023-03-04T21:47:17.536Z,2.70
2023-03-04T21:49:45.093Z,3.90
2023-03-04T21:52:13.190Z,3.00
2023-03-04T21:54:40.608Z,2.97
2023-03-04T21:57:08.198Z,2.70
2023-03-04T21:59:35.721Z,2.33
2023-03-04T22:02:03.270Z,3.80
2023-03-04T22:04:30.778Z,3.00
2023-03-04T22:06:58.429Z,3.40
2023-03-04T22:09:25.816Z,3.40
2023-03-04T22:11:53.164Z,3.43
2023-03-04T22:14:20.975Z,3.60
2023-03-04T22:16:55.392Z,3.03
2023-03-04T22:19:27.562Z,3.30
2023-03-04T22:21:55.139Z,2.93
2023-03-04T22:24:22.758Z,4.53
2023-03-04T22:26:50.274Z,3.20
2023-03-04T22:29:17.626Z,3.30
2023-03-04T22:31:45.727Z,4.47
2023-03-04T22:34:14.272Z,7.47
2023-03-04T22:36:45.238Z,6.47
2023-03-04T22:39:19.275Z,3.57
2023-03-04T22:41:47.081Z,3.50
2023-03-04T22:44:14.569Z,4.73
2023-03-04T22:46:42.740Z,3.90
2023-03-04T22:49:10.980Z,3.27
2023-03-04T22:54:32.492Z,2.93
2023-03-04T22:56:59.854Z,3.20
2023-03-04T22:59:29.620Z,3.37
2023-03-04T23:01:57.213Z,3.47
2023-03-04T23:04:24.611Z,3.80
2023-03-04T23:06:51.932Z,3.17
2023-03-04T23:09:19.290Z,2.83
2023-03-04T23:11:49.505Z,2.97
2023-03-04T23:14:16.842Z,3.27
2023-03-04T23:16:44.402Z,3.03
2023-03-04T23:19:13.210Z,3.20
2023-03-04T23:21:40.530Z,3.73
2023-03-04T23:24:08.457Z,3.57
2023-03-04T23:26:38.914Z,3.07
2023-03-04T23:29:07.637Z,2.80
2023-03-04T23:31:35.342Z,2.87
2023-03-04T23:34:03.936Z,3.50
2023-03-04T23:36:33.210Z,3.00
2023-03-04T23:39:00.655Z,2.90
2023-03-04T23:41:29.795Z,2.93
2023-03-04T23:43:57.885Z,3.33
2023-03-04T23:46:25.946Z,3.63
2023-03-04T23:48:53.739Z,2.17
2023-03-04T23:51:22.790Z,3.90
2023-03-04T23:53:50.277Z,3.73
2023-03-04T23:56:19.203Z,3.70
2023-03-04T23:58:49.106Z,2.70
